createdAt,value
2022-10-04T00:02:18.560Z,11.24
2022-10-04T00:05:06.057Z,11.13
2022-10-04T00:07:45.820Z,10.97
2022-10-04T00:10:17.956Z,10.99
2022-10-04T00:12:59.081Z,11.05
2022-10-04T00:15:38.485Z,11.02
2022-10-04T00:18:13.602Z,10.88
2022-10-04T00:20:51.025Z,10.82
2022-10-04T00:23:26.939Z,10.92
2022-10-04T00:26:03.275Z,10.93
2022-10-04T00:28:40.414Z,10.90
2022-10-04T00:31:19.680Z,10.87
2022-10-04T00:33:55.910Z,10.88
2022-10-04T00:36:26.442Z,10.98
2022-10-04T00:39:18.162Z,10.92
2022-10-04T00:41:50.049Z,11.08
2022-10-04T00:44:47.733Z,11.04
2022-10-04T00:47:54.052Z,11.08
2022-10-04T00:50:40.373Z,11.18
2022-10-04T00:53:38.466Z,11.33
2022-10-04T00:56:37.634Z,11.37
2022-10-04T00:59:18.065Z,11.41
2022-10-04T01:01:52.932Z,11.53
2022-10-04T01:04:46.017Z,11.45
2022-10-04T01:07:23.046Z,11.47
2022-10-04T01:09:57.585Z,11.45
2022-10-04T01:12:39.351Z,11.51
2022-10-04T01:15:37.621Z,11.55
2022-10-04T01:18:29.944Z,11.56
2022-10-04T01:21:22.883Z,11.51
2022-10-04T01:24:15.960Z,11.46
2022-10-04T01:26:48.149Z,11.41
2022-10-04T01:39:04.849Z,11.54
2022-10-04T01:41:42.126Z,11.54
2022-10-04T01:44:21.524Z,11.53
2022-10-04T01:46:54.856Z,11.50
2022-10-04T01:49:31.849Z,11.44
2022-10-04T01:52:15.707Z,11.35
2022-10-04T01:54:53.458Z,11.34
2022-10-04T01:57:32.543Z,11.29
2022-10-04T02:00:08.654Z,11.14
2022-10-04T02:03:29.728Z,11.17
2022-10-04T02:06:05.788Z,11.23
2022-10-04T02:08:42.345Z,11.02
2022-10-04T02:11:20.910Z,10.96
2022-10-04T02:13:54.275Z,11.02
2022-10-04T02:16:25.154Z,10.97
2022-10-04T02:18:55.965Z,10.92
2022-10-04T02:22:15.768Z,10.99
2022-10-04T02:24:50.599Z,11.06
2022-10-04T04:11:54.882Z,10.93
2022-10-04T04:14:30.232Z,10.95
2022-10-04T04:17:29.860Z,11.18
2022-10-04T04:20:07.583Z,11.13
2022-10-04T04:22:39.705Z,11.07
2022-10-04T04:25:16.733Z,11.12
2022-10-04T04:27:49.971Z,11.19
2022-10-04T04:30:20.724Z,11.25
2022-10-04T04:33:21.269Z,11.25
2022-10-04T04:35:56.148Z,11.22
2022-10-04T04:38:27.253Z,11.25
2022-10-04T04:40:57.783Z,11.29
2022-10-04T04:43:28.869Z,11.43
2022-10-04T04:46:25.602Z,11.48
2022-10-04T04:49:01.761Z,11.46
2022-10-04T04:51:33.867Z,11.57
2022-10-04T04:54:11.735Z,11.63
2022-10-04T05:38:21.779Z,11.87
2022-10-04T05:40:57.561Z,11.96
2022-10-04T05:43:41.999Z,11.96
2022-10-04T05:46:19.642Z,11.96
2022-10-04T05:48:56.640Z,12.06
2022-10-04T05:51:30.265Z,12.08
2022-10-04T05:54:02.513Z,12.16
2022-10-04T05:57:19.784Z,12.23
2022-10-04T06:00:21.407Z,12.27
2022-10-04T06:03:02.675Z,12.30
2022-10-04T06:05:43.035Z,12.40
2022-10-04T06:08:42.948Z,12.47
2022-10-04T06:11:16.288Z,12.52
2022-10-04T06:14:34.091Z,12.63
2022-10-04T06:17:06.563Z,12.62
2022-10-04T06:20:29.799Z,12.67
2022-10-04T06:23:01.954Z,12.82
2022-10-04T06:25:43.088Z,12.89
2022-10-04T06:28:21.401Z,13.05
2022-10-04T06:31:10.177Z,13.10
2022-10-04T06:34:02.351Z,13.61
2022-10-04T06:36:43.619Z,14.54
2022-10-04T06:40:07.990Z,15.09
2022-10-04T06:42:38.158Z,15.82
2022-10-04T06:45:21.780Z,16.95
2022-10-04T06:48:13.810Z,17.17
2022-10-04T06:50:45.136Z,17.12
2022-10-04T06:53:31.680Z,18.52
2022-10-04T06:56:18.137Z,19.07
2022-10-04T06:59:09.298Z,18.13
2022-10-04T07:01:52.635Z,17.02
2022-10-04T07:05:06.861Z,16.20
2022-10-04T07:07:39.250Z,15.55
2022-10-04T07:10:33.480Z,15.27
2022-10-04T07:13:33.657Z,15.01
2022-10-04T07:16:17.407Z,15.42
2022-10-04T07:18:56.903Z,16.97
2022-10-04T07:21:41.504Z,19.48
2022-10-04T07:24:21.085Z,20.82
2022-10-04T07:26:54.202Z,21.31
2022-10-04T07:29:31.451Z,20.44
2022-10-04T07:32:13.287Z,20.65
2022-10-04T07:34:44.519Z,20.02
2022-10-04T07:37:14.908Z,18.96
2022-10-04T07:40:04.648Z,18.06
2022-10-04T07:42:45.811Z,17.21
2022-10-04T07:45:29.152Z,16.32
2022-10-04T07:48:25.593Z,15.80
2022-10-04T07:50:59.310Z,15.33
2022-10-04T07:53:35.055Z,14.94
2022-10-04T07:56:23.187Z,14.76
2022-10-04T07:59:33.546Z,14.64
2022-10-04T08:02:47.057Z,14.50
2022-10-04T08:05:22.421Z,14.28
2022-10-04T08:08:20.233Z,14.19
2022-10-04T08:10:57.550Z,14.19
2022-10-04T08:14:02.955Z,14.34
2022-10-04T08:17:09.783Z,16.23
2022-10-04T08:20:05.738Z,16.46
2022-10-04T08:22:56.958Z,15.84
2022-10-04T08:25:43.260Z,15.39
2022-10-04T08:28:42.504Z,15.11
2022-10-04T08:31:22.467Z,15.00
2022-10-04T08:34:48.281Z,14.93
2022-10-04T08:37:49.164Z,14.81
2022-10-04T08:41:10.575Z,14.75
2022-10-04T08:44:18.022Z,14.85
2022-10-04T08:50:47.191Z,14.95
2022-10-04T08:53:53.191Z,14.98
2022-10-04T08:56:52.387Z,14.98
2022-10-04T08:59:28.294Z,15.17
2022-10-04T09:11:42.761Z,16.03
2022-10-04T09:14:54.760Z,16.83
2022-10-04T09:17:53.501Z,17.69
2022-10-04T09:20:49.780Z,17.68
2022-10-04T09:23:37.754Z,18.46
2022-10-04T09:26:46.005Z,19.51
2022-10-04T09:29:35.119Z,21.45
2022-10-04T09:32:13.567Z,23.10
2022-10-04T09:35:19.914Z,22.92
2022-10-04T09:38:20.757Z,21.33
2022-10-04T09:41:21.527Z,20.63
2022-10-04T09:44:46.446Z,23.30
2022-10-04T09:47:38.391Z,25.71
2022-10-04T09:50:32.439Z,26.69
2022-10-04T09:53:07.119Z,27.45
2022-10-04T09:56:28.300Z,26.32
2022-10-04T09:59:28.276Z,25.03
2022-10-04T10:02:21.428Z,23.51
2022-10-04T10:05:20.519Z,23.53
2022-10-04T10:07:52.499Z,22.58
2022-10-04T10:11:09.417Z,21.54
2022-10-04T10:14:17.076Z,20.60
2022-10-04T10:17:36.904Z,20.67
2022-10-04T10:20:34.923Z,21.36
2022-10-04T10:23:36.284Z,21.55
2022-10-04T10:26:11.383Z,21.48
2022-10-04T10:29:21.712Z,20.42
2022-10-04T10:32:28.429Z,19.44
2022-10-04T10:35:16.698Z,18.36
2022-10-04T10:38:03.624Z,17.84
2022-10-04T10:41:11.024Z,17.51
2022-10-04T10:43:53.815Z,17.34
2022-10-04T10:46:32.810Z,17.07
2022-10-04T10:49:41.713Z,16.94
2022-10-04T10:52:42.795Z,16.82
2022-10-04T10:55:49.554Z,18.04
2022-10-04T10:58:18.879Z,19.07
2022-10-04T11:01:10.024Z,18.51
2022-10-04T11:04:24.420Z,17.84
2022-10-04T11:07:16.752Z,18.15
2022-10-04T11:10:23.456Z,20.48
2022-10-04T11:13:48.470Z,22.01
2022-10-04T11:16:57.780Z,21.03
2022-10-04T11:19:34.887Z,21.11
2022-10-04T11:22:38.641Z,22.46
2022-10-04T11:25:30.220Z,23.50
2022-10-04T11:28:52.643Z,23.09
2022-10-04T11:32:06.012Z,22.26
2022-10-04T11:35:01.953Z,21.56
2022-10-04T11:41:11.282Z,19.69
2022-10-04T11:44:24.890Z,18.98
2022-10-04T11:47:06.879Z,18.73
2022-10-04T11:50:23.227Z,18.53
2022-10-04T11:53:22.422Z,18.20
2022-10-04T11:56:04.822Z,18.08
2022-10-04T11:58:54.725Z,18.09
2022-10-04T12:01:54.200Z,18.02
2022-10-04T12:05:02.165Z,17.78
2022-10-04T12:08:02.485Z,17.68
2022-10-04T12:10:40.761Z,17.87
2022-10-04T12:13:35.046Z,18.12
2022-10-04T12:16:16.344Z,18.17
2022-10-04T12:19:16.052Z,17.96
2022-10-04T12:21:51.759Z,17.59
2022-10-04T12:24:27.755Z,17.39
2022-10-04T12:27:31.529Z,17.19
2022-10-04T12:30:22.295Z,16.98
2022-10-04T12:32:57.904Z,17.65
2022-10-04T12:35:59.279Z,19.01
2022-10-04T12:38:50.539Z,20.30
2022-10-04T12:41:27.163Z,21.18
2022-10-04T12:44:29.987Z,21.40
2022-10-04T12:47:34.655Z,20.45
2022-10-04T12:50:15.755Z,19.53
2022-10-04T12:53:22.636Z,18.89
2022-10-04T12:56:28.616Z,18.33
2022-10-04T12:59:04.220Z,17.91
2022-10-04T13:01:52.273Z,17.67
2022-10-04T13:04:37.070Z,17.48
2022-10-04T13:07:45.117Z,17.86
2022-10-04T13:10:44.909Z,18.35
2022-10-04T13:14:00.265Z,18.25
2022-10-04T13:17:30.275Z,18.59
2022-10-04T13:20:16.163Z,18.55
2022-10-04T13:23:20.205Z,18.46
2022-10-04T13:26:54.000Z,18.20
2022-10-04T13:29:30.975Z,17.94
2022-10-04T13:32:03.372Z,17.71
2022-10-04T13:34:50.113Z,17.52
2022-10-04T13:54:52.352Z,19.84
2022-10-04T13:57:31.450Z,20.18
2022-10-04T14:00:07.753Z,20.32
2022-10-04T14:03:43.395Z,20.19
2022-10-04T14:06:12.909Z,19.70
2022-10-04T14:09:11.358Z,19.63
2022-10-04T14:12:18.181Z,19.63
2022-10-04T14:15:22.117Z,19.53
2022-10-04T14:18:26.948Z,19.30
2022-10-04T14:21:24.270Z,19.35
2022-10-04T14:24:34.886Z,19.35
2022-10-04T14:27:22.825Z,19.45
2022-10-04T14:30:19.057Z,19.29
2022-10-04T14:33:12.944Z,19.27
2022-10-04T14:36:03.749Z,19.07
2022-10-04T14:38:47.844Z,18.83
2022-10-04T14:41:52.886Z,18.59
2022-10-04T14:44:45.186Z,18.62
2022-10-04T14:48:05.721Z,18.61
2022-10-04T14:50:47.912Z,18.58
2022-10-04T14:53:42.355Z,18.56
2022-10-04T14:56:52.775Z,18.50
2022-10-04T14:59:36.586Z,18.37
2022-10-04T15:02:24.011Z,18.23
2022-10-04T15:05:24.506Z,18.17
2022-10-04T15:07:59.894Z,18.12
2022-10-04T15:10:37.883Z,18.00
2022-10-04T15:13:19.063Z,17.85
2022-10-04T15:16:14.499Z,17.70
2022-10-04T15:18:56.486Z,17.45
2022-10-04T15:21:50.970Z,17.19
2022-10-04T15:24:21.839Z,17.02
2022-10-04T15:26:55.593Z,16.90
2022-10-04T15:29:32.470Z,16.80
2022-10-04T15:32:33.176Z,16.64
2022-10-04T15:35:15.777Z,16.45
2022-10-04T15:38:03.187Z,16.14
2022-10-04T15:41:02.451Z,15.86
2022-10-04T15:43:50.547Z,15.57
2022-10-04T15:46:42.339Z,15.34
2022-10-04T15:49:52.926Z,15.05
2022-10-04T15:52:52.810Z,14.74
2022-10-04T15:55:31.867Z,14.56
2022-10-04T15:58:03.326Z,14.41
2022-10-04T16:00:44.267Z,14.24
2022-10-04T16:04:16.009Z,14.07
2022-10-04T16:07:01.253Z,13.69
2022-10-04T16:09:48.198Z,13.35
2022-10-04T16:12:36.853Z,13.07
2022-10-04T16:15:38.843Z,12.84
2022-10-04T16:18:37.375Z,12.65
2022-10-04T16:21:25.134Z,12.51
2022-10-04T16:24:24.084Z,12.41
2022-10-04T16:26:53.049Z,12.29
2022-10-04T16:29:32.247Z,12.19
2022-10-04T16:32:22.003Z,12.02
2022-10-04T16:35:01.236Z,11.80
2022-10-04T16:37:44.416Z,11.65
2022-10-04T16:40:32.998Z,11.52
2022-10-04T16:43:17.361Z,11.36
2022-10-04T16:46:18.064Z,11.23
2022-10-04T16:49:18.957Z,11.13
2022-10-04T16:52:06.851Z,11.06
2022-10-04T16:55:01.537Z,10.96
2022-10-04T16:57:31.085Z,10.88
2022-10-04T17:00:34.097Z,10.78
2022-10-04T17:03:07.533Z,10.65
2022-10-04T17:05:48.383Z,10.53
2022-10-04T17:08:18.513Z,10.42
2022-10-04T17:10:50.573Z,10.38
2022-10-04T17:13:46.124Z,10.32
2022-10-04T17:16:33.613Z,10.26
2022-10-04T17:19:36.437Z,10.21
2022-10-04T17:22:37.998Z,10.10
2022-10-04T17:25:08.886Z,9.99
2022-10-04T17:27:50.670Z,9.95
2022-10-04T17:30:23.656Z,9.86
2022-10-04T17:33:15.320Z,9.80
2022-10-04T17:36:01.219Z,9.77
2022-10-04T17:38:30.592Z,9.75
2022-10-04T17:41:21.505Z,9.71
2022-10-04T17:43:57.265Z,9.69
2022-10-04T17:47:04.815Z,9.61
2022-10-04T17:50:37.737Z,9.53
2022-10-04T17:53:38.130Z,9.44
2022-10-04T17:56:12.143Z,9.36
2022-10-04T17:59:06.036Z,9.31
2022-10-04T18:01:42.476Z,9.29
2022-10-04T18:04:30.603Z,9.25
2022-10-04T18:07:24.255Z,9.16
2022-10-04T18:09:57.318Z,9.06
2022-10-04T18:13:02.845Z,9.01
2022-10-04T18:15:44.024Z,9.01
2022-10-04T18:18:29.052Z,8.98
2022-10-04T18:21:09.465Z,8.93
2022-10-04T18:23:39.943Z,8.85
2022-10-04T18:26:21.259Z,8.78
2022-10-04T18:28:54.538Z,8.72
2022-10-04T18:31:32.081Z,8.70
2022-10-04T18:34:16.914Z,8.75
2022-10-04T18:36:58.801Z,8.76
2022-10-04T18:39:28.901Z,8.73
2022-10-04T18:42:18.415Z,8.71
2022-10-04T18:45:21.915Z,8.67
2022-10-04T18:47:54.411Z,8.68
2022-10-04T18:50:36.182Z,8.67
2022-10-04T18:53:32.832Z,8.67
2022-10-04T18:56:09.964Z,8.70
2022-10-04T18:59:38.764Z,8.70
2022-10-04T19:02:49.026Z,8.69
2022-10-04T19:05:33.079Z,8.63
2022-10-04T19:11:56.159Z,8.62
2022-10-04T19:14:51.316Z,8.65
2022-10-04T19:17:46.653Z,8.63
2022-10-04T19:20:41.887Z,8.58
2022-10-04T19:23:20.563Z,8.52
2022-10-04T19:26:26.306Z,8.51
2022-10-04T19:28:59.131Z,8.53
2022-10-04T19:31:40.680Z,8.56
2022-10-04T19:34:35.013Z,8.60
2022-10-04T19:37:14.830Z,8.58
2022-10-04T19:39:59.234Z,8.55
2022-10-04T19:43:10.475Z,8.53
2022-10-04T19:46:23.893Z,8.49
2022-10-04T19:48:56.548Z,8.47
2022-10-04T19:51:28.768Z,8.48
2022-10-04T19:54:15.850Z,8.48
2022-10-04T19:56:49.356Z,8.48
2022-10-04T19:59:52.034Z,8.48
2022-10-04T20:02:23.025Z,8.49
2022-10-04T20:04:54.734Z,8.45
2022-10-04T20:07:29.347Z,8.35
2022-10-04T20:10:37.255Z,8.29
2022-10-04T20:13:24.841Z,8.26
2022-10-04T20:15:57.057Z,8.21
2022-10-04T20:18:33.190Z,8.17
2022-10-04T20:21:29.507Z,8.14
2022-10-04T20:24:01.881Z,8.16
2022-10-04T20:27:06.518Z,8.18
2022-10-04T20:29:38.083Z,8.20
2022-10-04T20:32:37.278Z,8.21
2022-10-04T20:35:13.973Z,8.25
2022-10-04T20:38:27.778Z,8.28
2022-10-04T20:40:55.504Z,8.32
2022-10-04T20:43:26.912Z,8.34
2022-10-04T20:45:57.503Z,8.38
2022-10-04T20:48:29.350Z,8.43
2022-10-04T20:51:11.310Z,8.48
2022-10-04T20:53:51.227Z,8.54
2022-10-04T20:56:33.101Z,8.56
2022-10-04T20:59:03.741Z,8.57
2022-10-04T21:01:37.662Z,8.58
2022-10-04T21:04:43.694Z,8.61
2022-10-04T21:07:19.760Z,8.65
2022-10-04T21:09:54.233Z,8.66
2022-10-04T21:12:39.060Z,8.69
2022-10-04T21:15:30.334Z,8.75
2022-10-04T21:18:07.603Z,8.76
2022-10-04T21:20:52.245Z,8.71
2022-10-04T21:23:35.699Z,8.67
2022-10-04T21:26:26.289Z,8.66
2022-10-04T21:28:58.459Z,8.64
2022-10-04T21:31:28.374Z,8.61
2022-10-04T21:33:58.215Z,8.60
2022-10-04T21:36:27.339Z,8.62
2022-10-04T21:38:59.613Z,8.62
2022-10-04T21:41:30.136Z,8.63
2022-10-04T21:43:59.176Z,8.63
2022-10-04T21:46:31.358Z,8.65
2022-10-04T21:49:06.648Z,8.69
2022-10-04T21:51:37.732Z,8.72
2022-10-04T21:54:08.069Z,8.75
2022-10-04T21:56:37.098Z,8.77
2022-10-04T21:59:07.494Z,8.79
2022-10-04T22:01:38.336Z,8.81
2022-10-04T22:04:09.327Z,8.82
2022-10-04T22:06:40.954Z,8.84
2022-10-04T22:09:10.330Z,8.88
2022-10-04T22:11:42.617Z,8.91
2022-10-04T22:14:11.436Z,8.92
2022-10-04T22:16:42.056Z,8.89
2022-10-04T22:19:12.664Z,8.87
2022-10-04T22:21:42.277Z,8.84
2022-10-04T22:24:18.083Z,8.84
2022-10-04T22:26:49.645Z,8.83
2022-10-04T22:29:23.689Z,8.83
2022-10-04T22:31:53.404Z,8.83
2022-10-04T22:34:25.595Z,8.76
2022-10-04T22:36:54.513Z,8.70
2022-10-04T22:39:26.677Z,8.69
2022-10-04T22:41:59.361Z,8.66
2022-10-04T22:44:32.317Z,8.61
2022-10-04T22:47:03.734Z,8.58
2022-10-04T22:49:37.987Z,8.58
2022-10-04T22:52:14.113Z,8.58
2022-10-04T22:54:48.561Z,8.61
2022-10-04T22:57:19.981Z,8.65
2022-10-04T22:59:52.364Z,8.67
2022-10-04T23:02:27.081Z,8.66
2022-10-04T23:04:59.637Z,8.65
2022-10-04T23:07:29.371Z,8.63
2022-10-04T23:09:59.666Z,8.62
2022-10-04T23:12:28.794Z,8.62
2022-10-04T23:15:03.338Z,8.65
2022-10-04T23:17:37.077Z,8.68
2022-10-04T23:20:14.388Z,8.69
2022-10-04T23:22:47.972Z,8.69
2022-10-04T23:25:25.017Z,8.71
2022-10-04T23:27:58.984Z,8.74
2022-10-04T23:30:32.711Z,8.75
2022-10-04T23:33:04.408Z,8.77
2022-10-04T23:35:34.918Z,8.77
2022-10-04T23:38:07.674Z,8.78
2022-10-04T23:40:37.148Z,8.78
2022-10-04T23:43:13.422Z,8.76
2022-10-04T23:45:47.796Z,8.74
2022-10-04T23:48:32.716Z,8.70
2022-10-04T23:51:02.317Z,8.69
2022-10-04T23:53:34.136Z,8.71
2022-10-04T23:56:12.119Z,8.73
2022-10-04T23:58:42.236Z,8.78
